createdAt,value
2019-02-07T00:01:54.724Z,100539.50
2019-02-07T00:06:58.201Z,100527.03
2019-02-07T00:12:02.132Z,100513.38
2019-02-07T00:17:05.615Z,100509.23
2019-02-07T00:22:09.262Z,100497.38
2019-02-07T00:27:12.735Z,100489.06
2019-02-07T00:32:16.205Z,100486.29
2019-02-07T00:37:20.058Z,100474.41
2019-02-07T00:42:23.530Z,100466.70
2019-02-07T00:47:27.002Z,100471.45
2019-02-07T00:52:30.481Z,100470.66
2019-02-07T00:57:33.956Z,100472.05
2019-02-07T01:02:37.596Z,100461.75
2019-02-07T01:07:41.140Z,100446.91
2019-02-07T01:12:44.682Z,100444.33
2019-02-07T01:17:48.154Z,100446.91
2019-02-07T01:22:51.626Z,100426.72
2019-02-07T01:27:55.735Z,100420.39
2019-02-07T01:32:59.266Z,100405.75
2019-02-07T01:38:02.827Z,100397.23
2019-02-07T01:43:06.326Z,100391.51
2019-02-07T01:48:09.797Z,100374.28
2019-02-07T01:53:13.282Z,100371.31
2019-02-07T01:58:16.764Z,100360.86
2019-02-07T02:03:20.239Z,100354.94
2019-02-07T02:08:23.725Z,100358.50
2019-02-07T02:13:27.220Z,100353.55
2019-02-07T02:18:30.676Z,100344.45
2019-02-07T02:23:34.144Z,100335.34
2019-02-07T02:28:37.700Z,100320.52
2019-02-07T02:33:41.181Z,100314.97
2019-02-07T02:38:44.655Z,100315.39
2019-02-07T02:43:48.302Z,100302.91
2019-02-07T02:48:51.770Z,100288.11
2019-02-07T02:53:56.886Z,100288.71
2019-02-07T02:59:00.364Z,100277.03
2019-02-07T03:04:05.473Z,100270.70
2019-02-07T03:09:13.831Z,100267.74
2019-02-07T03:14:18.937Z,100268.94
2019-02-07T03:19:32.779Z,100260.63
2019-02-07T03:24:46.783Z,100257.06
2019-02-07T03:30:08.410Z,100243.02
2019-02-07T03:35:29.658Z,100245.20
2019-02-07T03:40:43.718Z,100241.64
2019-02-07T03:46:02.081Z,100233.92
2019-02-07T03:50:58.603Z,100228.64
2019-02-07T03:56:12.774Z,100216.77
2019-02-07T04:01:33.313Z,100217.97
2019-02-07T04:06:41.427Z,100212.42
2019-02-07T04:11:46.562Z,100208.45
2019-02-07T04:16:51.670Z,100201.16
2019-02-07T04:21:56.780Z,100188.50
2019-02-07T04:27:10.966Z,100185.73
2019-02-07T04:32:25.129Z,100186.52
2019-02-07T04:37:30.230Z,100174.05
2019-02-07T04:42:41.632Z,100177.41
2019-02-07T04:48:02.561Z,100169.11
2019-02-07T04:53:16.816Z,100164.95
2019-02-07T04:58:30.906Z,100155.44
2019-02-07T05:03:41.728Z,100146.75
2019-02-07T05:08:52.836Z,100136.27
2019-02-07T05:14:00.645Z,100129.94
2019-02-07T05:19:08.893Z,100125.60
2019-02-07T05:24:30.449Z,100118.67
2019-02-07T05:29:35.561Z,100115.91
2019-02-07T05:34:40.681Z,100114.37
2019-02-07T05:39:51.279Z,100101.89
2019-02-07T05:44:56.395Z,100101.89
2019-02-07T05:50:10.501Z,100106.47
2019-02-07T05:55:24.613Z,100095.80
2019-02-07T06:00:32.620Z,100090.07
2019-02-07T06:05:37.734Z,100083.14
2019-02-07T06:10:51.689Z,100082.77
2019-02-07T06:15:57.105Z,100076.03
2019-02-07T06:21:02.214Z,100065.56
2019-02-07T06:26:12.819Z,100060.61
2019-02-07T06:31:17.939Z,100050.32
2019-02-07T06:36:23.050Z,100050.32
2019-02-07T06:41:40.124Z,100054.92
2019-02-07T06:46:45.253Z,100045.23
2019-02-07T06:51:59.191Z,100049.19
2019-02-07T06:57:04.301Z,100047.02
2019-02-07T07:02:12.074Z,100045.03
2019-02-07T07:07:35.217Z,100043.47
2019-02-07T07:12:55.145Z,100028.23
2019-02-07T07:18:02.964Z,100015.58
2019-02-07T07:23:20.009Z,100015.40
2019-02-07T07:28:25.137Z,100005.11
2019-02-07T07:33:48.369Z,99991.86
2019-02-07T07:39:11.497Z,99992.45
2019-02-07T07:44:22.095Z,99971.50
2019-02-07T07:49:27.207Z,99957.66
2019-02-07T07:54:32.318Z,99962.41
2019-02-07T07:59:53.792Z,99972.89
2019-02-07T08:04:58.904Z,99976.25
2019-02-07T08:10:04.014Z,99969.33
2019-02-07T08:15:12.428Z,99950.92
2019-02-07T08:20:17.780Z,99946.07
2019-02-07T08:25:31.960Z,99938.77
2019-02-07T08:30:53.217Z,99947.34
2019-02-07T08:36:10.708Z,99942.95
2019-02-07T08:41:30.643Z,99923.39
2019-02-07T08:46:41.368Z,99914.55
2019-02-07T08:52:04.913Z,99912.99
2019-02-07T08:57:25.391Z,99912.09
2019-02-07T09:02:33.127Z,99887.08
2019-02-07T09:07:38.241Z,99878.47
2019-02-07T09:12:46.808Z,99874.20
2019-02-07T09:18:11.446Z,99858.93
2019-02-07T09:23:31.660Z,99854.70
2019-02-07T09:28:53.013Z,99861.39
2019-02-07T09:34:16.325Z,99833.29
2019-02-07T09:39:37.604Z,99850.61
2019-02-07T09:44:42.720Z,99842.09
2019-02-07T09:49:56.638Z,99844.03
2019-02-07T09:55:18.017Z,99875.80
2019-02-07T10:00:34.926Z,99867.25
2019-02-07T10:05:54.949Z,99858.53
2019-02-07T10:11:03.016Z,99854.89
2019-02-07T10:16:11.110Z,99881.39
2019-02-07T10:21:18.905Z,99876.03
2019-02-07T10:26:29.866Z,99882.04
2019-02-07T10:31:51.513Z,99874.88
2019-02-07T10:37:12.859Z,99868.89
2019-02-07T10:42:23.769Z,99857.58
2019-02-07T10:47:30.515Z,99843.91
2019-02-07T10:52:35.723Z,99833.20
2019-02-07T10:57:56.744Z,99833.44
2019-02-07T11:03:04.800Z,99828.13
2019-02-07T11:08:09.909Z,99839.21
2019-02-07T11:13:27.219Z,99828.31
2019-02-07T11:18:55.325Z,99824.58
2019-02-07T11:24:11.610Z,99823.64
2019-02-07T11:29:16.932Z,99807.02
2019-02-07T11:34:22.035Z,99793.95
2019-02-07T11:39:43.354Z,99796.73
2019-02-07T11:44:51.141Z,99780.86
2019-02-07T11:49:56.629Z,99767.64
2019-02-07T11:55:04.516Z,99759.94
2019-02-07T12:00:18.231Z,99755.00
2019-02-07T12:05:29.392Z,99750.84
2019-02-07T12:10:40.464Z,99742.09
2019-02-07T12:15:45.574Z,99752.56
2019-02-07T12:20:53.709Z,99752.92
2019-02-07T12:25:58.838Z,99745.94
2019-02-07T12:31:09.990Z,99724.47
2019-02-07T12:36:31.262Z,99724.05
2019-02-07T12:41:42.114Z,99718.09
2019-02-07T12:46:47.252Z,99712.28
2019-02-07T12:51:55.332Z,99716.43
2019-02-07T12:57:09.396Z,99720.77
2019-02-07T13:02:26.848Z,99711.43
2019-02-07T13:07:32.026Z,99716.55
2019-02-07T13:12:52.366Z,99714.38
2019-02-07T13:17:59.983Z,99723.20
2019-02-07T13:23:07.674Z,99723.20
2019-02-07T13:28:25.109Z,99716.73
2019-02-07T13:33:39.193Z,99714.56
2019-02-07T13:39:00.651Z,99730.73
2019-02-07T13:44:06.334Z,99728.56
2019-02-07T13:49:20.689Z,99736.27
2019-02-07T13:54:35.229Z,99737.05
2019-02-07T13:59:40.339Z,99740.43
2019-02-07T14:05:01.902Z,99731.69
2019-02-07T14:10:19.388Z,99731.27
2019-02-07T14:15:33.037Z,99736.81
2019-02-07T14:20:38.150Z,99743.13
2019-02-07T14:25:48.829Z,99738.38
2019-02-07T14:31:02.907Z,99742.35
2019-02-07T14:36:21.788Z,99744.52
2019-02-07T14:41:26.920Z,99746.93
2019-02-07T14:46:32.209Z,99737.84
2019-02-07T14:51:35.692Z,99741.66
2019-02-07T14:56:39.268Z,99738.11
2019-02-07T15:01:42.737Z,99721.91
2019-02-07T15:06:46.220Z,99743.29
2019-02-07T15:11:49.873Z,99730.04
2019-02-07T15:16:53.361Z,99744.50
2019-02-07T15:21:56.846Z,99729.50
2019-02-07T15:27:00.331Z,99736.28
2019-02-07T15:32:03.881Z,99736.94
2019-02-07T15:37:07.440Z,99740.07
2019-02-07T15:42:10.925Z,99754.19
2019-02-07T15:47:14.409Z,99754.19
2019-02-07T15:52:17.906Z,99728.39
2019-02-07T15:57:22.073Z,99728.39
2019-02-07T16:02:26.005Z,99741.57
2019-02-07T16:07:29.489Z,99755.78
2019-02-07T16:12:32.972Z,99755.78
2019-02-07T16:17:36.530Z,99752.05
2019-02-07T16:22:40.085Z,99764.34
2019-02-07T16:27:43.738Z,99772.83
2019-02-07T16:32:47.223Z,99783.22
2019-02-07T16:37:51.352Z,99786.50
2019-02-07T16:42:54.831Z,99785.12
2019-02-07T16:47:58.313Z,99776.62
2019-02-07T16:53:01.945Z,99784.94
2019-02-07T16:58:06.366Z,99793.43
2019-02-07T17:03:09.906Z,99788.67
2019-02-07T17:08:13.389Z,99783.91
2019-02-07T17:13:16.876Z,99773.02
2019-02-07T17:18:20.433Z,99782.89
2019-02-07T17:23:24.092Z,99773.09
2019-02-07T17:28:27.972Z,99775.45
2019-02-07T17:33:31.459Z,99778.40
2019-02-07T17:38:35.024Z,99793.82
2019-02-07T17:43:38.514Z,99805.09
2019-02-07T17:48:42.008Z,99802.47
2019-02-07T17:53:46.050Z,99818.48
2019-02-07T17:58:49.544Z,99817.70
2019-02-07T18:03:53.106Z,99817.70
2019-02-07T18:08:56.599Z,99817.89
2019-02-07T18:14:00.326Z,99826.98
2019-02-07T18:19:03.883Z,99829.94
2019-02-07T18:24:07.823Z,99830.54
2019-02-07T18:29:11.866Z,99832.34
2019-02-07T18:34:16.276Z,99840.06
2019-02-07T18:39:20.311Z,99855.06
2019-02-07T18:44:24.646Z,99868.31
2019-02-07T18:49:28.981Z,99884.34
2019-02-07T18:54:33.414Z,99888.87
2019-02-07T18:59:37.441Z,99882.53
2019-02-07T19:04:41.367Z,99912.42
2019-02-07T19:09:46.228Z,99916.73
2019-02-07T19:14:49.955Z,99929.99
2019-02-07T19:19:53.791Z,99926.02
2019-02-07T19:24:57.710Z,99932.77
2019-02-07T19:30:01.548Z,99928.78
2019-02-07T19:35:08.883Z,99920.47
2019-02-07T19:40:18.266Z,99930.36
2019-02-07T19:45:24.631Z,99931.92
2019-02-07T19:50:29.494Z,99937.66
2019-02-07T19:55:34.446Z,99930.72
2019-02-07T20:00:39.421Z,99944.39
2019-02-07T20:05:44.350Z,99941.81
2019-02-07T20:10:48.791Z,99947.35
2019-02-07T20:15:53.330Z,99946.15
2019-02-07T20:20:57.355Z,99950.13
2019-02-07T20:26:01.685Z,99962.00
2019-02-07T20:31:06.020Z,99953.68
2019-02-07T20:36:10.158Z,99961.03
2019-02-07T20:41:14.286Z,99967.17
2019-02-07T20:46:18.307Z,99975.48
2019-02-07T20:51:22.168Z,99972.53
2019-02-07T20:56:26.641Z,99981.45
2019-02-07T21:01:30.629Z,99986.81
2019-02-07T21:06:34.248Z,99986.81
2019-02-07T21:11:37.873Z,99981.09
2019-02-07T21:16:41.434Z,99990.19
2019-02-07T21:21:45.063Z,100003.11
2019-02-07T21:26:48.560Z,100009.44
2019-02-07T21:31:52.333Z,100005.88
2019-02-07T21:36:55.818Z,100005.70
2019-02-07T21:41:59.305Z,100019.38
2019-02-07T21:47:02.807Z,100023.53
2019-02-07T21:52:06.293Z,100035.22
2019-02-07T21:57:09.787Z,100038.59
2019-02-07T22:02:13.281Z,100044.73
2019-02-07T22:07:16.772Z,100048.11
2019-02-07T22:12:20.538Z,100042.20
2019-02-07T22:17:24.043Z,100035.45
2019-02-07T22:22:27.524Z,100041.59
2019-02-07T22:27:30.990Z,100038.82
2019-02-07T22:32:34.461Z,100038.03
2019-02-07T22:37:38.278Z,100030.36
2019-02-07T22:42:47.755Z,100035.89
2019-02-07T22:47:47.121Z,100046.35
2019-02-07T22:52:56.771Z,100053.13
2019-02-07T22:57:55.935Z,100048.18
2019-02-07T23:02:59.774Z,100052.94
2019-02-07T23:08:03.247Z,100063.42
2019-02-07T23:13:07.765Z,100067.59
2019-02-07T23:18:11.395Z,100064.63
2019-02-07T23:23:14.867Z,100063.84
2019-02-07T23:28:18.621Z,100068.00
2019-02-07T23:33:22.098Z,100079.69
2019-02-07T23:38:25.567Z,100082.27
2019-02-07T23:43:29.105Z,100081.48
2019-02-07T23:48:32.688Z,100089.61
2019-02-07T23:53:36.630Z,100090.81
2019-02-07T23:58:40.106Z,100096.36
